Terminal Aerodrome Forecast
Issued by NWS Brownsville, TX

Home | Current Version | Previous Version | Text Only | Print | Product List | Glossary On
Versions: 1 2 3 4 5 6 7 8 9 10 11 12 13
000
FTUS44 KBRO 281738
TAFBRO
TAF
KBRO 281738Z 2818/2918 14014G20KT P6SM SCT040
     FM290200 14008KT P6SM FEW025 SCT200
     FM290900 14004KT P6SM FEW020 BKN200
     FM291500 15008KT P6SM SCT035 SCT200=

USA.gov is the U.S. government's official web portal to all federal, state and local government web resources and services.